sensor_id;sensor_type;location;lat;lon;timestamp;P1;durP1;ratioP1;P2;durP2;ratioP2
80421;SDS011;69763;50.182;9.144;2023-05-03T00:00:54;8.85;;;3.75;;
80421;SDS011;69763;50.182;9.144;2023-05-03T00:03:20;8.80;;;4.38;;
80421;SDS011;69763;50.182;9.144;2023-05-03T00:05:45;9.27;;;4.50;;
80421;SDS011;69763;50.182;9.144;2023-05-03T00:08:11;11.00;;;4.65;;
80421;SDS011;69763;50.182;9.144;2023-05-03T00:10:37;10.63;;;4.63;;
80421;SDS011;69763;50.182;9.144;2023-05-03T00:13:03;9.60;;;4.30;;
80421;SDS011;69763;50.182;9.144;2023-05-03T00:15:28;12.07;;;5.82;;
80421;SDS011;69763;50.182;9.144;2023-05-03T00:17:53;9.63;;;4.95;;
80421;SDS011;69763;50.182;9.144;2023-05-03T00:20:19;8.95;;;4.35;;
80421;SDS011;69763;50.182;9.144;2023-05-03T00:22:44;12.70;;;4.80;;
80421;SDS011;69763;50.182;9.144;2023-05-03T00:25:10;14.10;;;5.18;;
80421;SDS011;69763;50.182;9.144;2023-05-03T00:27:36;12.02;;;4.40;;
80421;SDS011;69763;50.182;9.144;2023-05-03T00:30:02;11.02;;;4.93;;
80421;SDS011;69763;50.182;9.144;2023-05-03T00:32:28;12.90;;;5.07;;
80421;SDS011;69763;50.182;9.144;2023-05-03T00:34:53;11.70;;;5.32;;
80421;SDS011;69763;50.182;9.144;2023-05-03T00:37:20;11.73;;;5.50;;
80421;SDS011;69763;50.182;9.144;2023-05-03T00:39:45;12.55;;;5.85;;
80421;SDS011;69763;50.182;9.144;2023-05-03T00:42:10;17.83;;;5.72;;
80421;SDS011;69763;50.182;9.144;2023-05-03T00:44:37;15.38;;;6.18;;
80421;SDS011;69763;50.182;9.144;2023-05-03T00:47:02;12.18;;;5.57;;
80421;SDS011;69763;50.182;9.144;2023-05-03T00:49:28;12.98;;;5.60;;
80421;SDS011;69763;50.182;9.144;2023-05-03T00:51:53;11.02;;;5.03;;
80421;SDS011;69763;50.182;9.144;2023-05-03T00:54:19;7.57;;;4.22;;
80421;SDS011;69763;50.182;9.144;2023-05-03T00:56:45;9.80;;;5.03;;
80421;SDS011;69763;50.182;9.144;2023-05-03T00:59:10;9.13;;;5.10;;
80421;SDS011;69763;50.182;9.144;2023-05-03T01:01:37;12.90;;;5.43;;
80421;SDS011;69763;50.182;9.144;2023-05-03T01:04:03;14.82;;;6.38;;
80421;SDS011;69763;50.182;9.144;2023-05-03T01:06:31;15.77;;;5.45;;
80421;SDS011;69763;50.182;9.144;2023-05-03T01:09:02;12.38;;;5.05;;
80421;SDS011;69763;50.182;9.144;2023-05-03T01:11:33;14.10;;;6.55;;
80421;SDS011;69763;50.182;9.144;2023-05-03T01:14:07;9.52;;;5.07;;
80421;SDS011;69763;50.182;9.144;2023-05-03T01:16:42;11.95;;;5.50;;
80421;SDS011;69763;50.182;9.144;2023-05-03T01:19:12;9.15;;;4.75;;
80421;SDS011;69763;50.182;9.144;2023-05-03T01:21:56;13.35;;;4.57;;
80421;SDS011;69763;50.182;9.144;2023-05-03T01:24:27;11.55;;;4.63;;
80421;SDS011;69763;50.182;9.144;2023-05-03T01:26:57;10.30;;;5.25;;
80421;SDS011;69763;50.182;9.144;2023-05-03T01:29:22;10.38;;;4.50;;
80421;SDS011;69763;50.182;9.144;2023-05-03T01:31:48;14.65;;;5.15;;
80421;SDS011;69763;50.182;9.144;2023-05-03T01:34:21;8.95;;;5.03;;
80421;SDS011;69763;50.182;9.144;2023-05-03T01:36:52;11.27;;;5.05;;
80421;SDS011;69763;50.182;9.144;2023-05-03T01:39:23;8.00;;;4.03;;
80421;SDS011;69763;50.182;9.144;2023-05-03T01:41:50;15.05;;;4.75;;
80421;SDS011;69763;50.182;9.144;2023-05-03T01:44:18;11.82;;;4.70;;
80421;SDS011;69763;50.182;9.144;2023-05-03T01:46:45;9.80;;;4.50;;
80421;SDS011;69763;50.182;9.144;2023-05-03T01:49:11;9.32;;;4.88;;
80421;SDS011;69763;50.182;9.144;2023-05-03T01:51:37;8.70;;;4.63;;
80421;SDS011;69763;50.182;9.144;2023-05-03T01:54:02;10.70;;;4.90;;
80421;SDS011;69763;50.182;9.144;2023-05-03T01:56:28;9.02;;;5.10;;
80421;SDS011;69763;50.182;9.144;2023-05-03T01:58:54;9.05;;;4.10;;
80421;SDS011;69763;50.182;9.144;2023-05-03T02:01:21;6.57;;;4.60;;
80421;SDS011;69763;50.182;9.144;2023-05-03T02:03:46;6.45;;;4.13;;
80421;SDS011;69763;50.182;9.144;2023-05-03T02:06:11;8.80;;;4.55;;
80421;SDS011;69763;50.182;9.144;2023-05-03T02:08:37;8.95;;;4.30;;
80421;SDS011;69763;50.182;9.144;2023-05-03T02:11:02;14.15;;;5.07;;
80421;SDS011;69763;50.182;9.144;2023-05-03T02:13:27;15.38;;;5.50;;
80421;SDS011;69763;50.182;9.144;2023-05-03T02:15:53;9.98;;;5.38;;
80421;SDS011;69763;50.182;9.144;2023-05-03T02:18:19;10.48;;;4.63;;
80421;SDS011;69763;50.182;9.144;2023-05-03T02:20:45;9.93;;;4.75;;
80421;SDS011;69763;50.182;9.144;2023-05-03T02:23:10;14.43;;;4.68;;
80421;SDS011;69763;50.182;9.144;2023-05-03T02:25:36;7.35;;;4.43;;
80421;SDS011;69763;50.182;9.144;2023-05-03T02:28:01;12.45;;;5.05;;
80421;SDS011;69763;50.182;9.144;2023-05-03T02:30:27;15.90;;;5.70;;
80421;SDS011;69763;50.182;9.144;2023-05-03T02:32:52;8.05;;;4.25;;
80421;SDS011;69763;50.182;9.144;2023-05-03T02:35:19;12.98;;;5.22;;
80421;SDS011;69763;50.182;9.144;2023-05-03T02:37:44;12.57;;;4.95;;
80421;SDS011;69763;50.182;9.144;2023-05-03T02:40:10;15.65;;;4.68;;
80421;SDS011;69763;50.182;9.144;2023-05-03T02:42:36;12.18;;;5.07;;
80421;SDS011;69763;50.182;9.144;2023-05-03T02:45:01;8.63;;;4.75;;
80421;SDS011;69763;50.182;9.144;2023-05-03T02:47:27;8.43;;;4.90;;
80421;SDS011;69763;50.182;9.144;2023-05-03T02:49:52;11.05;;;4.68;;
80421;SDS011;69763;50.182;9.144;2023-05-03T02:52:19;13.30;;;4.75;;
80421;SDS011;69763;50.182;9.144;2023-05-03T02:54:44;10.40;;;4.65;;
80421;SDS011;69763;50.182;9.144;2023-05-03T02:57:09;9.18;;;4.50;;
80421;SDS011;69763;50.182;9.144;2023-05-03T02:59:35;11.20;;;4.25;;
80421;SDS011;69763;50.182;9.144;2023-05-03T03:02:00;13.75;;;5.00;;
80421;SDS011;69763;50.182;9.144;2023-05-03T03:04:25;13.50;;;4.53;;
80421;SDS011;69763;50.182;9.144;2023-05-03T03:06:51;12.25;;;4.20;;
80421;SDS011;69763;50.182;9.144;2023-05-03T03:09:17;8.73;;;4.85;;
80421;SDS011;69763;50.182;9.144;2023-05-03T03:11:43;11.30;;;4.55;;
80421;SDS011;69763;50.182;9.144;2023-05-03T03:14:08;11.13;;;4.13;;
80421;SDS011;69763;50.182;9.144;2023-05-03T03:16:34;15.73;;;5.15;;
80421;SDS011;69763;50.182;9.144;2023-05-03T03:18:59;8.55;;;4.43;;
80421;SDS011;69763;50.182;9.144;2023-05-03T03:21:24;9.07;;;4.50;;
80421;SDS011;69763;50.182;9.144;2023-05-03T03:23:50;7.82;;;4.28;;
80421;SDS011;69763;50.182;9.144;2023-05-03T03:26:16;11.38;;;5.13;;
80421;SDS011;69763;50.182;9.144;2023-05-03T03:28:42;13.50;;;4.68;;
80421;SDS011;69763;50.182;9.144;2023-05-03T03:31:07;8.90;;;4.60;;
80421;SDS011;69763;50.182;9.144;2023-05-03T03:33:32;8.65;;;4.47;;
80421;SDS011;69763;50.182;9.144;2023-05-03T03:35:58;8.35;;;4.38;;
80421;SDS011;69763;50.182;9.144;2023-05-03T03:38:23;15.88;;;4.82;;
80421;SDS011;69763;50.182;9.144;2023-05-03T03:40:48;11.73;;;4.90;;
80421;SDS011;69763;50.182;9.144;2023-05-03T03:43:15;14.05;;;4.97;;
80421;SDS011;69763;50.182;9.144;2023-05-03T03:45:41;8.30;;;4.70;;
80421;SDS011;69763;50.182;9.144;2023-05-03T03:48:06;10.70;;;4.87;;
80421;SDS011;69763;50.182;9.144;2023-05-03T03:50:31;11.45;;;4.97;;
80421;SDS011;69763;50.182;9.144;2023-05-03T03:52:57;10.43;;;4.60;;
80421;SDS011;69763;50.182;9.144;2023-05-03T03:55:22;13.70;;;5.35;;
80421;SDS011;69763;50.182;9.144;2023-05-03T03:57:47;9.60;;;4.88;;
80421;SDS011;69763;50.182;9.144;2023-05-03T04:00:14;8.73;;;4.70;;
80421;SDS011;69763;50.182;9.144;2023-05-03T04:02:40;8.68;;;4.15;;
80421;SDS011;69763;50.182;9.144;2023-05-03T04:05:05;9.95;;;4.78;;
80421;SDS011;69763;50.182;9.144;2023-05-03T04:07:31;8.43;;;4.53;;
80421;SDS011;69763;50.182;9.144;2023-05-03T04:09:56;9.07;;;4.43;;
80421;SDS011;69763;50.182;9.144;2023-05-03T04:12:22;10.77;;;5.20;;
80421;SDS011;69763;50.182;9.144;2023-05-03T04:14:47;7.45;;;4.93;;
80421;SDS011;69763;50.182;9.144;2023-05-03T04:17:14;11.73;;;5.78;;
80421;SDS011;69763;50.182;9.144;2023-05-03T04:19:39;18.20;;;5.68;;
80421;SDS011;69763;50.182;9.144;2023-05-03T04:22:05;9.75;;;4.78;;
80421;SDS011;69763;50.182;9.144;2023-05-03T04:24:30;10.85;;;4.80;;
80421;SDS011;69763;50.182;9.144;2023-05-03T04:26:55;9.93;;;5.07;;
80421;SDS011;69763;50.182;9.144;2023-05-03T04:29:21;9.57;;;5.30;;
80421;SDS011;69763;50.182;9.144;2023-05-03T04:31:46;13.20;;;4.53;;
80421;SDS011;69763;50.182;9.144;2023-05-03T04:34:13;11.20;;;5.47;;
80421;SDS011;69763;50.182;9.144;2023-05-03T04:36:38;11.65;;;4.82;;
80421;SDS011;69763;50.182;9.144;2023-05-03T04:39:04;9.07;;;4.75;;
80421;SDS011;69763;50.182;9.144;2023-05-03T04:41:29;9.43;;;5.10;;
80421;SDS011;69763;50.182;9.144;2023-05-03T04:43:55;12.63;;;4.95;;
80421;SDS011;69763;50.182;9.144;2023-05-03T04:46:20;10.10;;;5.35;;
80421;SDS011;69763;50.182;9.144;2023-05-03T04:48:45;13.20;;;4.55;;
80421;SDS011;69763;50.182;9.144;2023-05-03T04:51:12;11.43;;;5.38;;
80421;SDS011;69763;50.182;9.144;2023-05-03T04:53:37;11.40;;;6.00;;
80421;SDS011;69763;50.182;9.144;2023-05-03T04:56:03;15.68;;;4.85;;
80421;SDS011;69763;50.182;9.144;2023-05-03T04:58:29;14.25;;;4.78;;
80421;SDS011;69763;50.182;9.144;2023-05-03T05:00:54;12.10;;;5.07;;
80421;SDS011;69763;50.182;9.144;2023-05-03T05:03:19;13.85;;;5.30;;
80421;SDS011;69763;50.182;9.144;2023-05-03T05:05:45;10.77;;;4.65;;
80421;SDS011;69763;50.182;9.144;2023-05-03T05:08:12;9.90;;;4.55;;
80421;SDS011;69763;50.182;9.144;2023-05-03T05:10:39;12.38;;;4.53;;
80421;SDS011;69763;50.182;9.144;2023-05-03T05:13:05;9.35;;;4.63;;
80421;SDS011;69763;50.182;9.144;2023-05-03T05:15:31;17.52;;;4.88;;
80421;SDS011;69763;50.182;9.144;2023-05-03T05:17:56;12.57;;;5.03;;
80421;SDS011;69763;50.182;9.144;2023-05-03T05:20:22;9.63;;;4.35;;
80421;SDS011;69763;50.182;9.144;2023-05-03T05:22:47;14.73;;;5.70;;
80421;SDS011;69763;50.182;9.144;2023-05-03T05:25:14;7.90;;;4.85;;
80421;SDS011;69763;50.182;9.144;2023-05-03T05:27:39;9.18;;;4.47;;
80421;SDS011;69763;50.182;9.144;2023-05-03T05:30:05;13.15;;;5.25;;
80421;SDS011;69763;50.182;9.144;2023-05-03T05:32:31;11.15;;;5.28;;
80421;SDS011;69763;50.182;9.144;2023-05-03T05:34:57;15.07;;;4.82;;
80421;SDS011;69763;50.182;9.144;2023-05-03T05:37:22;13.15;;;4.93;;
80421;SDS011;69763;50.182;9.144;2023-05-03T05:39:48;9.10;;;4.93;;
80421;SDS011;69763;50.182;9.144;2023-05-03T05:42:15;11.05;;;4.65;;
80421;SDS011;69763;50.182;9.144;2023-05-03T05:44:41;8.02;;;4.90;;
80421;SDS011;69763;50.182;9.144;2023-05-03T05:47:07;9.95;;;4.25;;
80421;SDS011;69763;50.182;9.144;2023-05-03T05:49:32;9.02;;;4.38;;
80421;SDS011;69763;50.182;9.144;2023-05-03T05:51:58;8.90;;;3.97;;
80421;SDS011;69763;50.182;9.144;2023-05-03T05:54:23;10.85;;;4.25;;
80421;SDS011;69763;50.182;9.144;2023-05-03T05:56:48;9.15;;;4.10;;
80421;SDS011;69763;50.182;9.144;2023-05-03T05:59:15;7.53;;;4.00;;
80421;SDS011;69763;50.182;9.144;2023-05-03T06:04:06;8.07;;;4.00;;
80421;SDS011;69763;50.182;9.144;2023-05-03T06:06:31;8.48;;;4.82;;
80421;SDS011;69763;50.182;9.144;2023-05-03T06:08:57;6.07;;;3.60;;
80421;SDS011;69763;50.182;9.144;2023-05-03T06:11:22;8.27;;;3.58;;
80421;SDS011;69763;50.182;9.144;2023-05-03T06:13:48;6.10;;;3.42;;
80421;SDS011;69763;50.182;9.144;2023-05-03T06:16:14;7.15;;;3.95;;
80421;SDS011;69763;50.182;9.144;2023-05-03T06:18:40;6.57;;;3.83;;
80421;SDS011;69763;50.182;9.144;2023-05-03T06:21:05;7.25;;;3.47;;
80421;SDS011;69763;50.182;9.144;2023-05-03T06:23:32;10.90;;;4.32;;
80421;SDS011;69763;50.182;9.144;2023-05-03T06:25:57;7.88;;;3.95;;
80421;SDS011;69763;50.182;9.144;2023-05-03T06:28:22;6.25;;;4.13;;
80421;SDS011;69763;50.182;9.144;2023-05-03T06:30:48;7.18;;;3.75;;
80421;SDS011;69763;50.182;9.144;2023-05-03T06:33:15;7.55;;;4.00;;
80421;SDS011;69763;50.182;9.144;2023-05-03T06:35:40;8.43;;;3.65;;
80421;SDS011;69763;50.182;9.144;2023-05-03T06:38:05;8.10;;;4.35;;
80421;SDS011;69763;50.182;9.144;2023-05-03T06:40:32;4.43;;;3.35;;
80421;SDS011;69763;50.182;9.144;2023-05-03T06:42:57;12.00;;;4.03;;
80421;SDS011;69763;50.182;9.144;2023-05-03T06:45:22;5.05;;;3.67;;
80421;SDS011;69763;50.182;9.144;2023-05-03T06:47:48;6.03;;;3.85;;
80421;SDS011;69763;50.182;9.144;2023-05-03T06:50:15;9.77;;;3.50;;
80421;SDS011;69763;50.182;9.144;2023-05-03T06:52:40;4.65;;;3.63;;
80421;SDS011;69763;50.182;9.144;2023-05-03T06:55:06;7.75;;;3.88;;
80421;SDS011;69763;50.182;9.144;2023-05-03T06:57:32;9.48;;;4.53;;
80421;SDS011;69763;50.182;9.144;2023-05-03T06:59:57;10.20;;;4.28;;
80421;SDS011;69763;50.182;9.144;2023-05-03T07:02:23;6.05;;;3.22;;
80421;SDS011;69763;50.182;9.144;2023-05-03T07:04:48;6.75;;;3.83;;
80421;SDS011;69763;50.182;9.144;2023-05-03T07:07:15;7.63;;;3.53;;
80421;SDS011;69763;50.182;9.144;2023-05-03T07:09:41;11.35;;;3.55;;
80421;SDS011;69763;50.182;9.144;2023-05-03T07:12:06;7.82;;;3.67;;
80421;SDS011;69763;50.182;9.144;2023-05-03T07:14:31;6.97;;;3.53;;
80421;SDS011;69763;50.182;9.144;2023-05-03T07:16:57;9.00;;;3.60;;
80421;SDS011;69763;50.182;9.144;2023-05-03T07:19:22;6.80;;;3.30;;
80421;SDS011;69763;50.182;9.144;2023-05-03T07:21:48;8.48;;;3.40;;
80421;SDS011;69763;50.182;9.144;2023-05-03T07:24:14;6.72;;;3.70;;
80421;SDS011;69763;50.182;9.144;2023-05-03T07:26:40;5.82;;;3.60;;
80421;SDS011;69763;50.182;9.144;2023-05-03T07:29:05;6.05;;;3.53;;
80421;SDS011;69763;50.182;9.144;2023-05-03T07:31:31;7.88;;;3.70;;
80421;SDS011;69763;50.182;9.144;2023-05-03T07:33:56;7.07;;;4.15;;
80421;SDS011;69763;50.182;9.144;2023-05-03T07:36:21;8.65;;;3.40;;
80421;SDS011;69763;50.182;9.144;2023-05-03T07:38:47;5.68;;;3.60;;
80421;SDS011;69763;50.182;9.144;2023-05-03T07:41:14;9.70;;;3.70;;
80421;SDS011;69763;50.182;9.144;2023-05-03T07:43:39;6.85;;;3.40;;
80421;SDS011;69763;50.182;9.144;2023-05-03T07:46:04;5.15;;;3.35;;
80421;SDS011;69763;50.182;9.144;2023-05-03T07:48:30;4.63;;;2.78;;
80421;SDS011;69763;50.182;9.144;2023-05-03T07:50:55;6.10;;;3.47;;
80421;SDS011;69763;50.182;9.144;2023-05-03T07:53:20;6.88;;;3.50;;
80421;SDS011;69763;50.182;9.144;2023-05-03T07:55:46;9.05;;;3.42;;
80421;SDS011;69763;50.182;9.144;2023-05-03T07:58:13;7.78;;;3.95;;
80421;SDS011;69763;50.182;9.144;2023-05-03T08:00:38;6.10;;;3.40;;
80421;SDS011;69763;50.182;9.144;2023-05-03T08:03:03;10.93;;;3.20;;
80421;SDS011;69763;50.182;9.144;2023-05-03T08:05:29;5.68;;;3.35;;
80421;SDS011;69763;50.182;9.144;2023-05-03T08:07:54;8.13;;;3.85;;
80421;SDS011;69763;50.182;9.144;2023-05-03T08:10:20;4.68;;;3.05;;
80421;SDS011;69763;50.182;9.144;2023-05-03T08:12:45;5.95;;;3.10;;
80421;SDS011;69763;50.182;9.144;2023-05-03T08:15:12;7.38;;;3.60;;
80421;SDS011;69763;50.182;9.144;2023-05-03T08:17:41;6.03;;;3.50;;
80421;SDS011;69763;50.182;9.144;2023-05-03T08:20:07;6.28;;;3.50;;
80421;SDS011;69763;50.182;9.144;2023-05-03T08:22:33;7.75;;;3.10;;
80421;SDS011;69763;50.182;9.144;2023-05-03T08:24:58;8.73;;;3.97;;
80421;SDS011;69763;50.182;9.144;2023-05-03T08:27:24;6.80;;;3.00;;
80421;SDS011;69763;50.182;9.144;2023-05-03T08:29:49;4.60;;;2.70;;
80421;SDS011;69763;50.182;9.144;2023-05-03T08:32:16;8.07;;;3.45;;
80421;SDS011;69763;50.182;9.144;2023-05-03T08:34:41;7.22;;;3.28;;
80421;SDS011;69763;50.182;9.144;2023-05-03T08:37:07;7.13;;;3.55;;
80421;SDS011;69763;50.182;9.144;2023-05-03T08:39:32;7.85;;;3.42;;
80421;SDS011;69763;50.182;9.144;2023-05-03T08:41:57;4.20;;;3.15;;
80421;SDS011;69763;50.182;9.144;2023-05-03T08:44:23;6.50;;;3.13;;
80421;SDS011;69763;50.182;9.144;2023-05-03T08:46:53;4.68;;;2.58;;
80421;SDS011;69763;50.182;9.144;2023-05-03T08:49:20;7.47;;;3.15;;
80421;SDS011;69763;50.182;9.144;2023-05-03T08:51:45;7.50;;;3.45;;
80421;SDS011;69763;50.182;9.144;2023-05-03T08:54:11;5.45;;;3.40;;
80421;SDS011;69763;50.182;9.144;2023-05-03T08:56:38;6.57;;;3.58;;
80421;SDS011;69763;50.182;9.144;2023-05-03T08:59:04;7.07;;;3.65;;
80421;SDS011;69763;50.182;9.144;2023-05-03T09:01:30;6.75;;;3.75;;
80421;SDS011;69763;50.182;9.144;2023-05-03T09:03:55;8.10;;;3.85;;
80421;SDS011;69763;50.182;9.144;2023-05-03T09:06:22;6.80;;;3.55;;
80421;SDS011;69763;50.182;9.144;2023-05-03T09:08:48;9.07;;;3.53;;
80421;SDS011;69763;50.182;9.144;2023-05-03T09:11:20;6.82;;;3.72;;
80421;SDS011;69763;50.182;9.144;2023-05-03T09:13:46;8.45;;;3.65;;
80421;SDS011;69763;50.182;9.144;2023-05-03T09:16:13;5.55;;;3.40;;
80421;SDS011;69763;50.182;9.144;2023-05-03T09:18:54;5.80;;;3.50;;
80421;SDS011;69763;50.182;9.144;2023-05-03T09:21:22;5.70;;;3.53;;
80421;SDS011;69763;50.182;9.144;2023-05-03T09:23:47;5.03;;;3.63;;
80421;SDS011;69763;50.182;9.144;2023-05-03T09:26:13;6.00;;;3.70;;
80421;SDS011;69763;50.182;9.144;2023-05-03T09:28:51;5.85;;;3.40;;
80421;SDS011;69763;50.182;9.144;2023-05-03T09:31:16;6.90;;;3.30;;
80421;SDS011;69763;50.182;9.144;2023-05-03T09:33:42;8.30;;;3.33;;
80421;SDS011;69763;50.182;9.144;2023-05-03T09:36:07;6.53;;;3.47;;
80421;SDS011;69763;50.182;9.144;2023-05-03T09:38:34;6.72;;;3.50;;
80421;SDS011;69763;50.182;9.144;2023-05-03T09:41:00;4.10;;;2.92;;
80421;SDS011;69763;50.182;9.144;2023-05-03T09:43:25;7.40;;;3.00;;
80421;SDS011;69763;50.182;9.144;2023-05-03T09:45:51;7.35;;;2.90;;
80421;SDS011;69763;50.182;9.144;2023-05-03T09:48:16;5.35;;;2.80;;
80421;SDS011;69763;50.182;9.144;2023-05-03T09:50:42;4.60;;;2.70;;
80421;SDS011;69763;50.182;9.144;2023-05-03T09:53:07;9.57;;;3.75;;
80421;SDS011;69763;50.182;9.144;2023-05-03T09:55:35;6.35;;;3.28;;
80421;SDS011;69763;50.182;9.144;2023-05-03T09:58:02;6.47;;;3.25;;
80421;SDS011;69763;50.182;9.144;2023-05-03T10:00:28;7.97;;;3.50;;
80421;SDS011;69763;50.182;9.144;2023-05-03T10:02:53;6.22;;;3.03;;
80421;SDS011;69763;50.182;9.144;2023-05-03T10:05:21;4.25;;;2.72;;
80421;SDS011;69763;50.182;9.144;2023-05-03T10:07:47;6.53;;;3.40;;
80421;SDS011;69763;50.182;9.144;2023-05-03T10:10:14;8.10;;;3.13;;
80421;SDS011;69763;50.182;9.144;2023-05-03T10:12:41;8.57;;;3.40;;
80421;SDS011;69763;50.182;9.144;2023-05-03T10:15:07;5.97;;;2.65;;
80421;SDS011;69763;50.182;9.144;2023-05-03T10:17:36;7.43;;;2.92;;
80421;SDS011;69763;50.182;9.144;2023-05-03T10:20:07;5.85;;;2.95;;
80421;SDS011;69763;50.182;9.144;2023-05-03T10:25:37;7.15;;;3.38;;
80421;SDS011;69763;50.182;9.144;2023-05-03T10:28:05;5.25;;;3.35;;
80421;SDS011;69763;50.182;9.144;2023-05-03T10:30:31;6.18;;;3.08;;
80421;SDS011;69763;50.182;9.144;2023-05-03T10:35:25;5.90;;;3.17;;
80421;SDS011;69763;50.182;9.144;2023-05-03T10:37:51;7.45;;;2.92;;
80421;SDS011;69763;50.182;9.144;2023-05-03T10:40:16;5.93;;;3.50;;
80421;SDS011;69763;50.182;9.144;2023-05-03T10:42:43;8.18;;;2.90;;
80421;SDS011;69763;50.182;9.144;2023-05-03T10:47:44;6.95;;;2.58;;
80421;SDS011;69763;50.182;9.144;2023-05-03T10:50:44;7.15;;;3.05;;
80421;SDS011;69763;50.182;9.144;2023-05-03T10:53:33;4.75;;;2.50;;
80421;SDS011;69763;50.182;9.144;2023-05-03T10:55:59;7.10;;;2.63;;
80421;SDS011;69763;50.182;9.144;2023-05-03T10:58:25;5.88;;;2.92;;
80421;SDS011;69763;50.182;9.144;2023-05-03T11:00:52;5.88;;;2.67;;
80421;SDS011;69763;50.182;9.144;2023-05-03T11:03:24;4.00;;;2.38;;
80421;SDS011;69763;50.182;9.144;2023-05-03T11:05:58;4.00;;;2.45;;
80421;SDS011;69763;50.182;9.144;2023-05-03T11:08:23;6.20;;;2.92;;
80421;SDS011;69763;50.182;9.144;2023-05-03T11:10:49;8.43;;;2.88;;
80421;SDS011;69763;50.182;9.144;2023-05-03T11:13:21;6.40;;;2.50;;
80421;SDS011;69763;50.182;9.144;2023-05-03T11:15:46;3.92;;;2.45;;
80421;SDS011;69763;50.182;9.144;2023-05-03T11:18:13;4.50;;;2.85;;
80421;SDS011;69763;50.182;9.144;2023-05-03T11:20:39;4.18;;;2.50;;
80421;SDS011;69763;50.182;9.144;2023-05-03T11:23:05;6.55;;;3.17;;
80421;SDS011;69763;50.182;9.144;2023-05-03T11:25:30;7.35;;;2.53;;
80421;SDS011;69763;50.182;9.144;2023-05-03T11:27:56;5.28;;;2.65;;
80421;SDS011;69763;50.182;9.144;2023-05-03T11:30:21;6.20;;;3.15;;
80421;SDS011;69763;50.182;9.144;2023-05-03T11:32:46;5.90;;;2.72;;
80421;SDS011;69763;50.182;9.144;2023-05-03T11:35:13;6.20;;;2.58;;
80421;SDS011;69763;50.182;9.144;2023-05-03T11:37:40;5.38;;;2.72;;
80421;SDS011;69763;50.182;9.144;2023-05-03T11:40:06;5.68;;;2.67;;
80421;SDS011;69763;50.182;9.144;2023-05-03T11:42:49;4.75;;;2.50;;
80421;SDS011;69763;50.182;9.144;2023-05-03T11:45:14;5.78;;;2.78;;
80421;SDS011;69763;50.182;9.144;2023-05-03T11:47:40;6.88;;;3.10;;
80421;SDS011;69763;50.182;9.144;2023-05-03T11:50:06;6.63;;;2.38;;
80421;SDS011;69763;50.182;9.144;2023-05-03T11:52:35;5.55;;;2.90;;
80421;SDS011;69763;50.182;9.144;2023-05-03T11:55:00;6.10;;;2.83;;
80421;SDS011;69763;50.182;9.144;2023-05-03T11:57:26;5.55;;;3.00;;
80421;SDS011;69763;50.182;9.144;2023-05-03T11:59:51;4.45;;;2.60;;
80421;SDS011;69763;50.182;9.144;2023-05-03T12:02:16;4.40;;;2.67;;
80421;SDS011;69763;50.182;9.144;2023-05-03T12:04:42;3.58;;;2.63;;
80421;SDS011;69763;50.182;9.144;2023-05-03T12:07:08;4.00;;;2.60;;
80421;SDS011;69763;50.182;9.144;2023-05-03T12:09:36;7.13;;;3.20;;
80421;SDS011;69763;50.182;9.144;2023-05-03T12:12:01;6.65;;;2.75;;
80421;SDS011;69763;50.182;9.144;2023-05-03T12:14:26;5.00;;;2.80;;
80421;SDS011;69763;50.182;9.144;2023-05-03T12:16:52;6.78;;;2.67;;
80421;SDS011;69763;50.182;9.144;2023-05-03T12:19:24;5.28;;;2.83;;
80421;SDS011;69763;50.182;9.144;2023-05-03T12:24:15;6.50;;;2.67;;
80421;SDS011;69763;50.182;9.144;2023-05-03T12:26:42;4.70;;;2.65;;
80421;SDS011;69763;50.182;9.144;2023-05-03T12:29:07;4.38;;;2.25;;
80421;SDS011;69763;50.182;9.144;2023-05-03T12:31:33;5.80;;;2.75;;
80421;SDS011;69763;50.182;9.144;2023-05-03T12:33:58;6.95;;;2.83;;
80421;SDS011;69763;50.182;9.144;2023-05-03T12:36:23;7.07;;;2.65;;
80421;SDS011;69763;50.182;9.144;2023-05-03T12:38:49;7.72;;;2.85;;
80421;SDS011;69763;50.182;9.144;2023-05-03T12:41:14;4.38;;;2.70;;
80421;SDS011;69763;50.182;9.144;2023-05-03T12:43:41;7.20;;;3.50;;
80421;SDS011;69763;50.182;9.144;2023-05-03T12:46:06;5.18;;;2.88;;
80421;SDS011;69763;50.182;9.144;2023-05-03T12:48:32;6.50;;;2.85;;
80421;SDS011;69763;50.182;9.144;2023-05-03T12:50:57;4.50;;;2.75;;
80421;SDS011;69763;50.182;9.144;2023-05-03T12:53:23;8.18;;;2.85;;
80421;SDS011;69763;50.182;9.144;2023-05-03T12:55:49;5.38;;;2.83;;
80421;SDS011;69763;50.182;9.144;2023-05-03T12:58:14;9.18;;;2.55;;
80421;SDS011;69763;50.182;9.144;2023-05-03T13:00:41;5.38;;;2.60;;
80421;SDS011;69763;50.182;9.144;2023-05-03T13:03:06;6.10;;;2.83;;
80421;SDS011;69763;50.182;9.144;2023-05-03T13:05:32;5.45;;;2.63;;
80421;SDS011;69763;50.182;9.144;2023-05-03T13:07:58;5.95;;;3.10;;
80421;SDS011;69763;50.182;9.144;2023-05-03T13:12:49;6.03;;;2.50;;
80421;SDS011;69763;50.182;9.144;2023-05-03T13:15:14;3.97;;;2.53;;
80421;SDS011;69763;50.182;9.144;2023-05-03T13:17:41;3.25;;;2.30;;
80421;SDS011;69763;50.182;9.144;2023-05-03T13:20:07;5.40;;;2.60;;
80421;SDS011;69763;50.182;9.144;2023-05-03T13:24:58;6.57;;;2.80;;
80421;SDS011;69763;50.182;9.144;2023-05-03T13:27:23;5.88;;;2.42;;
80421;SDS011;69763;50.182;9.144;2023-05-03T13:29:49;5.57;;;2.95;;
80421;SDS011;69763;50.182;9.144;2023-05-03T13:32:14;5.82;;;2.55;;
80421;SDS011;69763;50.182;9.144;2023-05-03T13:34:41;5.63;;;2.28;;
80421;SDS011;69763;50.182;9.144;2023-05-03T13:37:06;3.25;;;2.25;;
80421;SDS011;69763;50.182;9.144;2023-05-03T13:39:32;4.40;;;2.13;;
80421;SDS011;69763;50.182;9.144;2023-05-03T13:41:57;4.10;;;2.33;;
80421;SDS011;69763;50.182;9.144;2023-05-03T13:44:23;5.15;;;2.08;;
80421;SDS011;69763;50.182;9.144;2023-05-03T13:46:48;8.75;;;3.28;;
80421;SDS011;69763;50.182;9.144;2023-05-03T13:49:14;7.45;;;2.67;;
80421;SDS011;69763;50.182;9.144;2023-05-03T13:51:41;5.03;;;2.67;;
80421;SDS011;69763;50.182;9.144;2023-05-03T13:54:06;7.57;;;3.30;;
80421;SDS011;69763;50.182;9.144;2023-05-03T13:56:32;4.30;;;2.75;;
80421;SDS011;69763;50.182;9.144;2023-05-03T13:58:58;7.13;;;2.50;;
80421;SDS011;69763;50.182;9.144;2023-05-03T14:01:23;6.78;;;2.90;;
80421;SDS011;69763;50.182;9.144;2023-05-03T14:03:49;4.63;;;2.20;;
80421;SDS011;69763;50.182;9.144;2023-05-03T14:06:14;3.80;;;2.05;;
80421;SDS011;69763;50.182;9.144;2023-05-03T14:08:41;3.50;;;2.15;;
80421;SDS011;69763;50.182;9.144;2023-05-03T14:11:10;4.25;;;2.15;;
80421;SDS011;69763;50.182;9.144;2023-05-03T14:13:36;4.22;;;2.30;;
80421;SDS011;69763;50.182;9.144;2023-05-03T14:16:02;5.60;;;2.30;;
80421;SDS011;69763;50.182;9.144;2023-05-03T14:18:27;2.95;;;2.20;;
80421;SDS011;69763;50.182;9.144;2023-05-03T14:20:52;5.20;;;2.88;;
80421;SDS011;69763;50.182;9.144;2023-05-03T14:23:18;5.55;;;2.28;;
80421;SDS011;69763;50.182;9.144;2023-05-03T14:25:45;3.85;;;1.80;;
80421;SDS011;69763;50.182;9.144;2023-05-03T14:28:10;8.75;;;2.35;;
80421;SDS011;69763;50.182;9.144;2023-05-03T14:30:35;4.68;;;2.25;;
80421;SDS011;69763;50.182;9.144;2023-05-03T14:33:01;3.65;;;2.17;;
80421;SDS011;69763;50.182;9.144;2023-05-03T14:35:26;6.35;;;2.35;;
80421;SDS011;69763;50.182;9.144;2023-05-03T14:37:51;3.95;;;2.20;;
80421;SDS011;69763;50.182;9.144;2023-05-03T14:40:17;4.32;;;2.20;;
80421;SDS011;69763;50.182;9.144;2023-05-03T14:42:45;4.07;;;2.33;;
80421;SDS011;69763;50.182;9.144;2023-05-03T14:45:11;3.22;;;2.00;;
80421;SDS011;69763;50.182;9.144;2023-05-03T14:47:36;4.35;;;2.05;;
80421;SDS011;69763;50.182;9.144;2023-05-03T14:50:02;3.30;;;1.85;;
80421;SDS011;69763;50.182;9.144;2023-05-03T14:52:27;3.67;;;2.05;;
80421;SDS011;69763;50.182;9.144;2023-05-03T14:54:52;3.92;;;2.28;;